createdAt,value
2023-05-03T00:01:54.902Z,7.80
2023-05-03T00:04:23.130Z,7.25
2023-05-03T00:06:51.435Z,6.97
2023-05-03T00:09:18.535Z,7.93
2023-05-03T00:11:45.702Z,7.60
2023-05-03T00:14:12.809Z,8.38
2023-05-03T00:16:39.904Z,8.23
2023-05-03T00:19:12.606Z,7.95
2023-05-03T00:21:45.019Z,7.68
2023-05-03T00:24:12.109Z,7.50
2023-05-03T00:26:39.169Z,6.97
2023-05-03T00:29:06.242Z,6.93
2023-05-03T00:31:33.382Z,7.63
2023-05-03T00:34:00.497Z,7.10
2023-05-03T00:36:28.258Z,7.28
2023-05-03T00:38:55.351Z,7.20
2023-05-03T00:41:24.345Z,7.07
2023-05-03T00:43:51.383Z,7.50
2023-05-03T00:46:18.686Z,7.50
2023-05-03T00:48:46.625Z,7.85
2023-05-03T00:51:13.978Z,7.40
2023-05-03T00:53:41.477Z,7.45
2023-05-03T00:56:08.733Z,7.72
2023-05-03T00:58:39.940Z,20.95
2023-05-03T01:01:07.672Z,9.70
2023-05-03T01:03:36.191Z,8.48
2023-05-03T01:06:12.607Z,8.00
2023-05-03T01:08:43.669Z,7.35
2023-05-03T01:11:10.670Z,7.13
2023-05-03T01:13:42.799Z,8.27
2023-05-03T01:16:13.054Z,8.38
2023-05-03T01:18:41.782Z,19.55
2023-05-03T01:21:09.237Z,10.10
2023-05-03T01:23:55.166Z,8.93
2023-05-03T01:26:23.236Z,8.10
2023-05-03T01:28:50.715Z,8.63
2023-05-03T01:31:29.875Z,9.70
2023-05-03T01:34:17.280Z,8.07
2023-05-03T01:36:44.703Z,8.18
2023-05-03T01:39:13.693Z,8.40
2023-05-03T01:41:41.320Z,8.38
2023-05-03T01:44:08.392Z,8.57
2023-05-03T01:46:35.481Z,8.70
2023-05-03T01:49:02.534Z,9.30
2023-05-03T01:51:29.693Z,9.23
2023-05-03T01:53:56.766Z,9.25
2023-05-03T01:56:23.827Z,9.05
2023-05-03T01:58:50.969Z,10.95
2023-05-03T02:01:18.101Z,9.15
2023-05-03T02:03:45.322Z,9.32
2023-05-03T02:06:12.486Z,9.18
2023-05-03T02:08:39.565Z,9.98
2023-05-03T02:11:06.633Z,8.98
2023-05-03T02:13:33.676Z,9.32
2023-05-03T02:16:00.782Z,8.82
2023-05-03T02:18:31.268Z,9.13
2023-05-03T02:20:58.531Z,9.02
2023-05-03T02:23:25.589Z,9.90
2023-05-03T02:25:52.646Z,9.20
2023-05-03T02:28:19.885Z,9.45
2023-05-03T02:30:47.080Z,9.88
2023-05-03T02:33:14.272Z,10.35
2023-05-03T02:35:41.302Z,9.57
2023-05-03T02:38:08.388Z,9.93
2023-05-03T02:40:35.534Z,10.05
2023-05-03T02:43:03.775Z,9.52
2023-05-03T02:45:30.807Z,9.90
2023-05-03T02:47:59.068Z,9.95
2023-05-03T02:50:26.336Z,9.85
2023-05-03T02:52:53.556Z,9.60
2023-05-03T02:55:20.792Z,11.65
2023-05-03T02:57:47.844Z,9.68
2023-05-03T03:00:15.390Z,9.70
2023-05-03T03:02:42.744Z,10.55
2023-05-03T03:05:09.968Z,10.40
2023-05-03T03:07:39.009Z,9.55
2023-05-03T03:10:07.081Z,10.30
2023-05-03T03:12:34.575Z,9.27
2023-05-03T03:15:01.716Z,9.55
2023-05-03T03:17:28.847Z,9.18
2023-05-03T03:19:55.962Z,9.85
2023-05-03T03:22:23.026Z,8.52
2023-05-03T03:24:50.150Z,9.10
2023-05-03T03:27:17.178Z,9.05
2023-05-03T03:29:44.206Z,9.90
2023-05-03T03:32:11.414Z,10.13
2023-05-03T03:34:38.512Z,10.30
2023-05-03T03:37:05.608Z,10.13
2023-05-03T03:39:32.665Z,9.52
2023-05-03T03:42:00.485Z,10.10
2023-05-03T03:44:27.532Z,10.32
2023-05-03T03:46:54.659Z,10.70
2023-05-03T03:49:21.748Z,10.48
2023-05-03T03:51:48.775Z,10.88
2023-05-03T03:54:16.075Z,9.88
2023-05-03T03:56:43.576Z,10.70
2023-05-03T03:59:10.673Z,10.95
2023-05-03T04:01:37.766Z,11.15
2023-05-03T04:04:05.235Z,10.80
2023-05-03T04:06:33.462Z,10.50
2023-05-03T04:09:00.694Z,11.00
2023-05-03T04:11:27.784Z,11.10
2023-05-03T04:13:54.809Z,11.13
2023-05-03T04:16:22.061Z,11.10
2023-05-03T04:18:49.181Z,11.85
2023-05-03T04:21:16.344Z,12.95
2023-05-03T04:23:43.491Z,13.35
2023-05-03T04:26:23.587Z,12.30
2023-05-03T04:28:57.640Z,12.30
2023-05-03T04:31:25.079Z,18.98
2023-05-03T04:33:52.198Z,14.85
2023-05-03T04:36:19.262Z,12.93
2023-05-03T04:38:46.607Z,12.90
2023-05-03T04:41:15.517Z,12.27
2023-05-03T04:43:43.614Z,13.05
2023-05-03T04:46:10.829Z,12.48
2023-05-03T04:48:38.133Z,13.00
2023-05-03T04:51:05.657Z,13.00
2023-05-03T04:53:32.682Z,12.60
2023-05-03T04:55:59.990Z,13.18
2023-05-03T04:58:27.031Z,12.43
2023-05-03T05:00:54.260Z,12.60
2023-05-03T05:03:21.434Z,12.63
2023-05-03T05:05:48.645Z,12.15
2023-05-03T05:08:16.069Z,13.07
2023-05-03T05:10:43.259Z,12.70
2023-05-03T05:13:10.318Z,13.25
2023-05-03T05:15:37.391Z,12.48
2023-05-03T05:18:04.691Z,12.55
2023-05-03T05:20:31.803Z,15.70
2023-05-03T05:22:59.145Z,12.90
2023-05-03T05:25:26.211Z,12.23
2023-05-03T05:27:53.390Z,12.15
2023-05-03T05:30:20.600Z,12.10
2023-05-03T05:32:47.836Z,11.80
2023-05-03T05:35:17.592Z,10.25
2023-05-03T05:37:44.884Z,9.97
2023-05-03T05:40:12.434Z,9.68
2023-05-03T05:42:39.551Z,8.95
2023-05-03T05:45:08.180Z,9.00
2023-05-03T05:47:35.455Z,8.27
2023-05-03T05:50:09.626Z,8.93
2023-05-03T05:52:39.380Z,9.70
2023-05-03T05:55:07.715Z,7.82
2023-05-03T05:57:34.773Z,8.63
2023-05-03T06:00:02.188Z,7.90
2023-05-03T06:02:29.668Z,7.55
2023-05-03T06:04:56.942Z,7.80
2023-05-03T06:07:25.115Z,6.88
2023-05-03T06:09:52.287Z,7.05
2023-05-03T06:12:19.433Z,7.45
2023-05-03T06:15:01.093Z,6.80
2023-05-03T06:17:28.817Z,6.10
2023-05-03T06:19:55.863Z,5.60
2023-05-03T06:22:23.054Z,5.85
2023-05-03T06:24:50.626Z,6.75
2023-05-03T06:27:17.880Z,5.68
2023-05-03T06:29:45.048Z,5.03
2023-05-03T06:32:12.112Z,6.63
2023-05-03T06:34:39.244Z,5.53
2023-05-03T06:37:06.472Z,5.00
2023-05-03T06:39:33.578Z,5.07
2023-05-03T06:42:01.108Z,4.70
2023-05-03T06:44:28.274Z,5.13
2023-05-03T06:46:55.517Z,5.43
2023-05-03T06:49:22.938Z,5.22
2023-05-03T06:51:50.014Z,4.47
2023-05-03T06:54:17.237Z,4.68
2023-05-03T06:56:44.889Z,4.05
2023-05-03T06:59:11.935Z,4.30
2023-05-03T07:01:38.995Z,5.10
2023-05-03T07:04:06.213Z,4.45
2023-05-03T07:06:40.995Z,4.65
2023-05-03T07:09:28.686Z,5.40
2023-05-03T07:12:03.354Z,4.55
2023-05-03T07:14:31.472Z,4.35
2023-05-03T07:16:58.606Z,4.43
2023-05-03T07:19:25.744Z,4.32
2023-05-03T07:21:52.814Z,4.68
2023-05-03T07:24:20.363Z,4.43
2023-05-03T07:26:48.981Z,4.00
2023-05-03T07:29:16.200Z,3.55
2023-05-03T07:31:44.746Z,3.85
2023-05-03T07:34:11.906Z,4.05
2023-05-03T07:36:39.575Z,3.72
2023-05-03T07:39:07.335Z,3.70
2023-05-03T07:41:34.515Z,3.53
2023-05-03T07:44:01.617Z,3.50
2023-05-03T07:46:28.690Z,3.40
2023-05-03T07:48:55.667Z,3.00
2023-05-03T07:51:22.851Z,3.38
2023-05-03T07:53:49.847Z,3.40
2023-05-03T07:56:16.845Z,3.22
2023-05-03T07:58:46.743Z,3.15
2023-05-03T08:01:16.377Z,2.67
2023-05-03T08:03:44.183Z,2.50
2023-05-03T08:06:11.404Z,3.00
2023-05-03T08:08:38.544Z,2.85
2023-05-03T08:11:05.522Z,2.78
2023-05-03T08:13:32.502Z,2.75
2023-05-03T08:15:59.569Z,2.85
2023-05-03T08:18:27.506Z,3.05
2023-05-03T08:20:54.567Z,2.75
2023-05-03T08:23:21.824Z,2.88
2023-05-03T08:25:49.081Z,3.28
2023-05-03T08:28:16.464Z,3.22
2023-05-03T08:30:43.561Z,3.13
2023-05-03T08:33:10.951Z,2.67
2023-05-03T08:35:38.222Z,2.75
2023-05-03T08:38:05.318Z,3.10
2023-05-03T08:40:37.158Z,2.95
2023-05-03T08:43:08.471Z,3.00
2023-05-03T08:45:35.506Z,2.40
2023-05-03T08:48:04.411Z,2.88
2023-05-03T08:50:31.846Z,2.40
2023-05-03T08:52:59.909Z,2.72
2023-05-03T08:55:27.053Z,3.10
2023-05-03T08:57:54.100Z,2.65
2023-05-03T09:00:21.394Z,2.60
2023-05-03T09:02:50.158Z,2.45
2023-05-03T09:05:17.269Z,2.90
2023-05-03T09:08:05.957Z,2.63
2023-05-03T09:10:33.969Z,2.70
2023-05-03T09:13:01.645Z,2.67
2023-05-03T09:15:30.271Z,3.40
2023-05-03T09:18:10.754Z,3.00
2023-05-03T09:20:39.606Z,3.08
2023-05-03T09:23:09.893Z,3.33
2023-05-03T09:28:04.016Z,2.65
2023-05-03T09:30:31.198Z,2.55
2023-05-03T09:32:58.270Z,3.38
2023-05-03T09:35:25.365Z,2.65
2023-05-03T09:37:52.367Z,3.15
2023-05-03T09:40:19.534Z,2.67
2023-05-03T09:43:06.325Z,2.40
2023-05-03T09:45:34.303Z,2.45
2023-05-03T09:48:02.729Z,2.40
2023-05-03T09:50:29.935Z,2.35
2023-05-03T09:53:06.762Z,2.47
2023-05-03T09:55:34.516Z,2.70
2023-05-03T09:58:04.209Z,2.92
2023-05-03T10:00:31.600Z,2.42
2023-05-03T10:03:00.076Z,2.90
2023-05-03T10:05:27.435Z,2.78
2023-05-03T10:07:54.499Z,2.42
2023-05-03T10:10:21.619Z,2.75
2023-05-03T10:12:48.651Z,2.95
2023-05-03T10:15:18.373Z,2.50
2023-05-03T10:17:48.233Z,3.22
2023-05-03T10:20:17.595Z,2.90
2023-05-03T10:23:03.530Z,3.33
2023-05-03T10:25:30.754Z,2.83
2023-05-03T10:28:04.368Z,2.40
2023-05-03T10:30:32.718Z,2.22
2023-05-03T10:33:00.315Z,2.30
2023-05-03T10:35:29.465Z,2.75
2023-05-03T10:37:56.992Z,2.60
2023-05-03T10:40:24.141Z,3.25
2023-05-03T10:42:52.475Z,2.42
2023-05-03T10:45:25.862Z,2.70
2023-05-03T10:48:11.402Z,3.20
2023-05-03T10:50:38.917Z,2.80
2023-05-03T10:53:05.980Z,2.78
2023-05-03T10:55:33.156Z,2.40
2023-05-03T10:58:00.488Z,2.97
2023-05-03T11:00:33.863Z,2.90
2023-05-03T11:03:23.533Z,2.58
2023-05-03T11:05:51.615Z,2.70
2023-05-03T11:08:19.492Z,2.50
2023-05-03T11:10:46.734Z,2.28
2023-05-03T11:13:13.767Z,2.22
2023-05-03T11:15:40.950Z,2.65
2023-05-03T11:18:08.409Z,2.10
2023-05-03T11:20:38.584Z,2.08
2023-05-03T11:25:33.918Z,2.22
2023-05-03T11:28:04.256Z,2.47
2023-05-03T11:30:33.049Z,2.55
2023-05-03T11:33:00.284Z,2.40
2023-05-03T11:35:29.447Z,2.80
2023-05-03T11:37:56.752Z,3.28
2023-05-03T11:40:23.927Z,2.63
2023-05-03T11:42:52.345Z,2.47
2023-05-03T11:45:22.953Z,2.92
2023-05-03T11:47:50.995Z,2.53
2023-05-03T11:50:18.450Z,2.53
2023-05-03T11:52:45.654Z,2.53
2023-05-03T11:55:12.840Z,2.50
2023-05-03T11:57:39.923Z,2.40
2023-05-03T12:00:10.687Z,2.38
2023-05-03T12:02:37.841Z,2.20
2023-05-03T12:05:07.585Z,2.55
2023-05-03T12:07:35.706Z,2.10
2023-05-03T12:12:43.881Z,2.08
2023-05-03T12:15:16.359Z,2.17
2023-05-03T12:17:45.758Z,2.40
2023-05-03T12:22:58.604Z,2.08
2023-05-03T12:25:28.226Z,2.00
2023-05-03T12:28:17.659Z,2.00
2023-05-03T12:30:46.778Z,2.25
2023-05-03T12:33:15.963Z,1.52
2023-05-03T12:35:46.876Z,1.92
2023-05-03T12:38:16.749Z,1.70
2023-05-03T12:40:45.448Z,1.83
2023-05-03T12:43:12.895Z,1.88
2023-05-03T12:45:41.191Z,1.80
2023-05-03T12:48:09.173Z,1.50
2023-05-03T12:50:38.647Z,1.73
2023-05-03T12:55:41.878Z,1.63
2023-05-03T13:01:02.637Z,1.70
2023-05-03T13:03:33.361Z,1.63
2023-05-03T13:06:03.056Z,2.03
2023-05-03T13:08:37.020Z,1.50
2023-05-03T13:11:04.471Z,1.80
2023-05-03T13:13:33.117Z,1.55
2023-05-03T13:16:00.309Z,1.50
2023-05-03T13:18:27.711Z,1.48
2023-05-03T13:20:54.726Z,1.40
2023-05-03T13:23:21.744Z,2.00
2023-05-03T13:25:48.757Z,1.58
2023-05-03T13:28:20.363Z,1.63
2023-05-03T13:30:47.782Z,1.70
2023-05-03T13:33:14.846Z,1.40
2023-05-03T13:35:41.898Z,1.60
2023-05-03T13:38:09.264Z,1.60
2023-05-03T13:40:36.262Z,1.50
2023-05-03T13:43:03.239Z,1.25
2023-05-03T13:45:30.261Z,1.35
2023-05-03T13:48:06.625Z,1.70
2023-05-03T13:50:36.728Z,1.38
2023-05-03T13:53:03.779Z,1.30
2023-05-03T13:55:31.513Z,1.52
2023-05-03T13:57:58.513Z,1.30
2023-05-03T14:00:25.551Z,1.40
2023-05-03T14:02:53.166Z,1.48
2023-05-03T14:05:20.836Z,1.92
2023-05-03T14:07:47.972Z,1.42
2023-05-03T14:10:15.041Z,1.38
2023-05-03T14:12:42.282Z,1.40
2023-05-03T14:15:09.579Z,2.13
2023-05-03T14:17:36.675Z,1.48
2023-05-03T14:20:07.572Z,1.27
2023-05-03T14:22:34.920Z,1.77
2023-05-03T14:25:02.473Z,1.23
2023-05-03T14:27:30.541Z,1.40
2023-05-03T14:29:57.648Z,1.52
2023-05-03T14:32:25.064Z,1.13
2023-05-03T14:34:52.093Z,1.25
2023-05-03T14:37:19.082Z,1.55
2023-05-03T14:39:46.262Z,1.10
2023-05-03T14:42:13.261Z,1.25
2023-05-03T14:44:40.308Z,1.20
2023-05-03T14:47:07.762Z,1.30
2023-05-03T14:49:40.371Z,1.25
2023-05-03T14:52:07.788Z,1.17
2023-05-03T14:54:35.366Z,1.17
2023-05-03T14:57:02.580Z,1.45
2023-05-03T14:59:29.566Z,1.73
2023-05-03T15:01:56.733Z,1.20
2023-05-03T15:04:23.962Z,1.33
2023-05-03T15:06:51.152Z,1.60
2023-05-03T15:09:18.266Z,1.40
2023-05-03T15:11:48.557Z,1.42
2023-05-03T15:14:17.342Z,1.23
2023-05-03T15:16:44.575Z,1.50
2023-05-03T15:19:11.757Z,1.25
2023-05-03T15:21:48.253Z,1.00
2023-05-03T15:24:15.529Z,1.20
2023-05-03T15:26:42.574Z,1.30
2023-05-03T15:29:09.753Z,2.13
2023-05-03T15:31:37.964Z,1.65
2023-05-03T15:34:05.671Z,1.40
2023-05-03T15:36:32.866Z,1.27
2023-05-03T15:39:00.000Z,1.17
2023-05-03T15:41:27.151Z,2.40
2023-05-03T15:43:54.223Z,1.65
2023-05-03T15:46:21.389Z,2.58
2023-05-03T15:48:48.409Z,1.77
2023-05-03T15:51:15.486Z,1.88
2023-05-03T15:53:43.558Z,2.03
2023-05-03T15:56:11.719Z,1.85
2023-05-03T15:58:38.827Z,1.40
2023-05-03T16:01:05.864Z,1.40
2023-05-03T16:03:32.942Z,1.35
2023-05-03T16:05:59.923Z,1.00
2023-05-03T16:08:27.107Z,1.25
2023-05-03T16:10:54.081Z,1.10
2023-05-03T16:13:21.149Z,1.45
2023-05-03T16:15:52.107Z,2.30
2023-05-03T16:18:19.476Z,1.40
2023-05-03T16:20:46.503Z,1.40
2023-05-03T16:23:13.535Z,1.20
2023-05-03T16:25:40.602Z,1.70
2023-05-03T16:28:07.894Z,1.73
2023-05-03T16:30:34.950Z,1.98
2023-05-03T16:33:04.815Z,2.10
2023-05-03T16:35:32.024Z,1.75
2023-05-03T16:37:59.073Z,1.30
2023-05-03T16:40:26.164Z,1.38
2023-05-03T16:42:53.257Z,1.30
2023-05-03T16:45:20.358Z,1.10
2023-05-03T16:47:47.757Z,1.38
2023-05-03T16:50:14.776Z,2.15
2023-05-03T16:52:42.818Z,1.40
2023-05-03T16:55:10.729Z,1.60
2023-05-03T16:57:38.005Z,1.38
2023-05-03T17:00:09.124Z,1.40
2023-05-03T17:02:37.052Z,1.52
2023-05-03T17:05:05.095Z,1.38
2023-05-03T17:07:33.004Z,1.70
2023-05-03T17:10:00.565Z,1.40
2023-05-03T17:12:27.814Z,2.00
2023-05-03T17:14:54.907Z,1.92
2023-05-03T17:17:22.277Z,1.38
2023-05-03T17:19:49.559Z,1.35
2023-05-03T17:22:16.745Z,1.58
2023-05-03T17:24:43.803Z,1.65
2023-05-03T17:27:11.067Z,1.90
2023-05-03T17:29:38.195Z,1.90
2023-05-03T17:32:05.613Z,1.50
2023-05-03T17:34:33.819Z,1.40
2023-05-03T17:37:00.858Z,1.48
2023-05-03T17:39:28.423Z,1.30
2023-05-03T17:41:55.585Z,1.42
2023-05-03T17:44:22.847Z,1.40
2023-05-03T17:46:50.226Z,1.63
2023-05-03T17:49:17.349Z,1.38
2023-05-03T17:51:44.405Z,1.40
2023-05-03T17:54:11.589Z,1.70
2023-05-03T17:56:38.573Z,1.70
2023-05-03T17:59:05.620Z,1.75
2023-05-03T18:01:32.605Z,1.60
2023-05-03T18:03:59.780Z,1.27
2023-05-03T18:06:27.966Z,1.45
2023-05-03T18:08:55.031Z,1.58
2023-05-03T18:11:22.870Z,1.60
2023-05-03T18:13:49.924Z,1.52
2023-05-03T18:16:17.084Z,1.38
2023-05-03T18:18:44.358Z,1.50
2023-05-03T18:21:12.327Z,1.50
2023-05-03T18:23:39.424Z,1.30
2023-05-03T18:26:07.923Z,1.20
2023-05-03T18:28:35.095Z,1.20
2023-05-03T18:31:03.709Z,2.22
2023-05-03T18:33:30.836Z,2.33
2023-05-03T18:35:58.863Z,2.03
2023-05-03T18:38:26.104Z,2.40
2023-05-03T18:40:54.689Z,2.00
2023-05-03T18:43:21.710Z,2.65
2023-05-03T18:45:48.752Z,4.38
2023-05-03T18:48:15.894Z,4.40
2023-05-03T18:50:43.999Z,11.88
2023-05-03T18:53:11.123Z,5.47
2023-05-03T18:55:38.148Z,2.75
2023-05-03T18:58:05.514Z,2.53
2023-05-03T19:00:32.717Z,3.40
2023-05-03T19:02:59.854Z,3.05
2023-05-03T19:05:26.862Z,2.00
2023-05-03T19:07:53.979Z,2.55
2023-05-03T19:10:21.151Z,2.33
2023-05-03T19:12:48.251Z,1.55
2023-05-03T19:15:15.319Z,1.40
2023-05-03T19:17:42.566Z,1.15
2023-05-03T19:20:10.317Z,2.20
2023-05-03T19:22:40.685Z,1.80
2023-05-03T19:25:08.230Z,2.53
2023-05-03T19:27:35.262Z,3.17
2023-05-03T19:30:02.488Z,1.70
2023-05-03T19:32:29.941Z,1.50
2023-05-03T19:34:57.128Z,1.58
2023-05-03T19:37:27.250Z,1.50
2023-05-03T19:39:54.458Z,1.75
2023-05-03T19:42:21.490Z,2.08
2023-05-03T19:44:48.492Z,2.10
2023-05-03T19:47:15.510Z,1.80
2023-05-03T19:49:42.598Z,2.25
2023-05-03T19:52:09.715Z,2.15
2023-05-03T19:54:36.718Z,2.10
2023-05-03T19:57:07.411Z,2.60
2023-05-03T19:59:34.879Z,1.83
2023-05-03T20:02:02.180Z,1.58
2023-05-03T20:04:29.397Z,1.75
2023-05-03T20:06:57.178Z,1.60
2023-05-03T20:09:24.303Z,2.22
2023-05-03T20:11:51.888Z,1.60
2023-05-03T20:14:19.005Z,1.80
2023-05-03T20:16:46.082Z,1.55
2023-05-03T20:19:13.239Z,1.77
2023-05-03T20:21:40.430Z,1.50
2023-05-03T20:24:10.673Z,1.80
2023-05-03T20:26:38.526Z,1.50
2023-05-03T20:29:05.593Z,1.73
2023-05-03T20:31:33.012Z,1.70
2023-05-03T20:34:00.406Z,1.90
2023-05-03T20:36:27.920Z,1.80
2023-05-03T20:38:54.969Z,1.50
2023-05-03T20:41:22.776Z,1.85
2023-05-03T20:43:50.714Z,1.48
2023-05-03T20:46:18.378Z,1.45
2023-05-03T20:48:45.601Z,1.73
2023-05-03T20:51:12.962Z,1.80
2023-05-03T20:53:40.030Z,2.25
2023-05-03T20:56:07.813Z,1.70
2023-05-03T20:58:34.879Z,1.77
2023-05-03T21:01:04.231Z,2.22
2023-05-03T21:03:31.815Z,2.60
2023-05-03T21:05:59.071Z,2.08
2023-05-03T21:08:26.221Z,2.00
2023-05-03T21:10:53.616Z,1.73
2023-05-03T21:13:20.767Z,1.83
2023-05-03T21:15:47.886Z,2.00
2023-05-03T21:18:15.734Z,1.83
2023-05-03T21:20:42.781Z,1.90
2023-05-03T21:23:09.870Z,2.10
2023-05-03T21:25:37.003Z,1.83
2023-05-03T21:28:04.177Z,1.98
2023-05-03T21:30:31.667Z,1.80
2023-05-03T21:32:58.751Z,2.10
2023-05-03T21:35:25.898Z,2.58
2023-05-03T21:37:52.972Z,2.00
2023-05-03T21:40:21.206Z,1.88
2023-05-03T21:42:49.468Z,1.85
2023-05-03T21:45:16.786Z,2.10
2023-05-03T21:47:43.914Z,1.85
2023-05-03T21:50:11.373Z,1.63
2023-05-03T21:52:38.546Z,1.90
2023-05-03T21:55:05.797Z,2.20
2023-05-03T21:57:33.289Z,2.00
2023-05-03T22:00:00.317Z,2.00
2023-05-03T22:02:27.424Z,2.05
2023-05-03T22:04:54.626Z,2.42
2023-05-03T22:07:21.626Z,1.67
2023-05-03T22:09:48.859Z,1.80
2023-05-03T22:14:46.078Z,2.25
2023-05-03T22:17:13.489Z,2.47
2023-05-03T22:19:40.499Z,1.92
2023-05-03T22:22:07.515Z,2.53
2023-05-03T22:24:34.488Z,1.83
2023-05-03T22:27:01.570Z,2.40
2023-05-03T22:29:28.615Z,2.53
2023-05-03T22:31:56.354Z,2.25
2023-05-03T22:34:23.491Z,2.53
2023-05-03T22:36:50.694Z,2.65
2023-05-03T22:39:17.777Z,2.20
2023-05-03T22:41:45.224Z,2.30
2023-05-03T22:44:12.387Z,2.25
2023-05-03T22:46:39.444Z,2.40
2023-05-03T22:49:07.360Z,2.38
2023-05-03T22:51:34.409Z,2.45
2023-05-03T22:54:01.548Z,2.63
2023-05-03T22:56:28.604Z,2.60
2023-05-03T22:58:55.623Z,2.00
2023-05-03T23:01:22.713Z,3.50
2023-05-03T23:03:49.783Z,2.85
2023-05-03T23:06:16.897Z,2.58
2023-05-03T23:08:44.002Z,2.40
2023-05-03T23:11:11.128Z,2.65
2023-05-03T23:13:38.371Z,2.30
2023-05-03T23:16:05.625Z,2.40
2023-05-03T23:18:32.700Z,2.30
2023-05-03T23:20:59.842Z,2.20
2023-05-03T23:23:26.827Z,2.60
2023-05-03T23:25:53.848Z,2.28
2023-05-03T23:28:21.235Z,2.13
2023-05-03T23:30:48.866Z,2.40
2023-05-03T23:33:16.425Z,2.22
2023-05-03T23:35:43.887Z,2.38
2023-05-03T23:38:10.971Z,2.53
2023-05-03T23:40:38.039Z,2.42
2023-05-03T23:43:04.997Z,2.63
2023-05-03T23:45:32.034Z,2.28
2023-05-03T23:47:59.077Z,2.80
2023-05-03T23:50:26.351Z,2.50
2023-05-03T23:52:53.350Z,2.58
2023-05-03T23:55:20.426Z,2.72
2023-05-03T23:57:47.410Z,2.65
